JRA8411 KMIA-MUHA
Flight info
| Callsign | JRA8411 |
|---|---|
| Flight time | 0h 43m |
| Altitude | 25000 |
| Route | S |
| Aircraft | PL24/L-VGD/N |
Departure
| Time | 2026-05-06 00:39 |
|---|---|
| Airport | Miami International Airport (KMIA) |
Arrival
| Time | 2026-05-06 01:23 |
|---|---|
| Airport | José Martí International Airport (MUHA) |
| Time | Latitude | Longitude | Altitude | Speed | Heading |
|---|---|---|---|---|---|
| 2026-05-06 00:36 | 25.78772 | -80.27562 | 17 ft | 0 kts | 267° |
| 2026-05-06 00:38 | 25.78772 | -80.27577 | 17 ft | 6 kts | 270° |
| 2026-05-06 00:38 | 25.78760 | -80.27955 | 17 ft | 97 kts | 268° |
| 2026-05-06 00:38 | 25.78712 | -80.28991 | 16 ft | 170 kts | 267° |
| 2026-05-06 00:38 | 25.78672 | -80.30382 | 520 ft | 176 kts | 268° |
| 2026-05-06 00:39 | 25.78646 | -80.31733 | 579 ft | 177 kts | 269° |
| 2026-05-06 00:39 | 25.78553 | -80.33106 | 673 ft | 177 kts | 255° |
| 2026-05-06 00:39 | 25.77858 | -80.34224 | 1023 ft | 181 kts | 225° |
| 2026-05-06 00:39 | 25.76880 | -80.35123 | 1324 ft | 189 kts | 217° |
| 2026-05-06 00:40 | 25.75836 | -80.35924 | 2000 ft | 172 kts | 212° |
| 2026-05-06 00:40 | 25.74794 | -80.36588 | 2409 ft | 175 kts | 208° |
| 2026-05-06 00:40 | 25.73645 | -80.37196 | 2531 ft | 194 kts | 204° |
| 2026-05-06 00:40 | 25.72328 | -80.37769 | 2679 ft | 207 kts | 200° |
| 2026-05-06 00:41 | 25.70954 | -80.38247 | 3064 ft | 207 kts | 196° |
| 2026-05-06 00:41 | 25.69547 | -80.38625 | 3402 ft | 209 kts | 192° |
| 2026-05-06 00:41 | 25.68113 | -80.38899 | 3746 ft | 209 kts | 189° |
| 2026-05-06 00:41 | 25.66736 | -80.39432 | 4064 ft | 210 kts | 206° |
| 2026-05-06 00:42 | 25.65430 | -80.40169 | 4399 ft | 212 kts | 207° |
| 2026-05-06 00:42 | 25.64120 | -80.40920 | 4769 ft | 212 kts | 208° |
| 2026-05-06 00:42 | 25.62802 | -80.41678 | 5111 ft | 214 kts | 208° |
| 2026-05-06 00:42 | 25.61479 | -80.42440 | 5491 ft | 214 kts | 208° |
| 2026-05-06 00:43 | 25.60150 | -80.43205 | 5832 ft | 216 kts | 208° |
| 2026-05-06 00:43 | 25.58815 | -80.43974 | 6167 ft | 217 kts | 208° |
| 2026-05-06 00:43 | 25.57471 | -80.44749 | 6485 ft | 218 kts | 208° |
| 2026-05-06 00:43 | 25.56122 | -80.45525 | 6810 ft | 219 kts | 208° |
| 2026-05-06 00:44 | 25.54769 | -80.46303 | 6976 ft | 220 kts | 208° |
| 2026-05-06 00:44 | 25.53422 | -80.47076 | 7178 ft | 221 kts | 208° |
| 2026-05-06 00:44 | 25.52112 | -80.47960 | 7353 ft | 221 kts | 220° |
| 2026-05-06 00:44 | 25.51034 | -80.49172 | 7487 ft | 222 kts | 225° |
| 2026-05-06 00:45 | 25.49840 | -80.50289 | 7673 ft | 225 kts | 216° |
| 2026-05-06 00:45 | 25.48549 | -80.51261 | 8631 ft | 220 kts | 214° |
| 2026-05-06 00:45 | 25.47281 | -80.52232 | 9603 ft | 225 kts | 216° |
| 2026-05-06 00:45 | 25.45992 | -80.53241 | 10547 ft | 228 kts | 216° |
| 2026-05-06 00:46 | 25.44707 | -80.54250 | 11466 ft | 231 kts | 216° |
| 2026-05-06 00:46 | 25.43380 | -80.55287 | 12385 ft | 235 kts | 216° |
| 2026-05-06 00:46 | 25.42034 | -80.56339 | 13286 ft | 238 kts | 216° |
| 2026-05-06 00:46 | 25.40670 | -80.57402 | 14174 ft | 242 kts | 216° |
| 2026-05-06 00:47 | 25.39285 | -80.58485 | 15055 ft | 245 kts | 216° |
| 2026-05-06 00:47 | 25.37882 | -80.59580 | 15911 ft | 249 kts | 216° |
| 2026-05-06 00:47 | 25.36458 | -80.60691 | 16741 ft | 252 kts | 216° |
| 2026-05-06 00:47 | 25.35014 | -80.61818 | 17547 ft | 256 kts | 216° |
| 2026-05-06 00:48 | 25.33550 | -80.62958 | 18327 ft | 259 kts | 216° |
| 2026-05-06 00:48 | 25.32067 | -80.64115 | 19077 ft | 262 kts | 216° |
| 2026-05-06 00:48 | 25.30566 | -80.65284 | 19802 ft | 266 kts | 216° |
| 2026-05-06 00:48 | 25.29048 | -80.66467 | 20505 ft | 269 kts | 216° |
| 2026-05-06 00:49 | 25.27512 | -80.67664 | 21181 ft | 272 kts | 216° |
| 2026-05-06 00:49 | 25.25955 | -80.68875 | 21832 ft | 275 kts | 216° |
| 2026-05-06 00:49 | 25.24382 | -80.70101 | 22459 ft | 278 kts | 216° |
| 2026-05-06 00:49 | 25.22791 | -80.71337 | 23063 ft | 281 kts | 215° |
| 2026-05-06 00:50 | 25.21185 | -80.72587 | 23647 ft | 284 kts | 215° |
| 2026-05-06 00:50 | 25.19566 | -80.73845 | 24208 ft | 286 kts | 216° |
| 2026-05-06 00:50 | 25.17929 | -80.75119 | 24743 ft | 289 kts | 215° |
| 2026-05-06 00:50 | 25.16254 | -80.76420 | 25018 ft | 300 kts | 216° |
| 2026-05-06 00:51 | 25.14535 | -80.77755 | 25016 ft | 300 kts | 215° |
| 2026-05-06 00:51 | 25.12844 | -80.79068 | 25009 ft | 295 kts | 216° |
| 2026-05-06 00:51 | 25.11143 | -80.80389 | 25003 ft | 308 kts | 215° |
| 2026-05-06 00:51 | 25.09337 | -80.81792 | 25018 ft | 326 kts | 215° |
| 2026-05-06 00:52 | 25.07433 | -80.83267 | 25019 ft | 342 kts | 215° |
| 2026-05-06 00:52 | 25.05444 | -80.84810 | 25017 ft | 356 kts | 215° |
| 2026-05-06 00:52 | 25.03415 | -80.86382 | 25018 ft | 367 kts | 215° |
| 2026-05-06 00:52 | 25.01301 | -80.88021 | 25016 ft | 376 kts | 215° |
| 2026-05-06 00:53 | 24.99135 | -80.89697 | 25018 ft | 384 kts | 215° |
| 2026-05-06 00:53 | 24.96927 | -80.91408 | 25014 ft | 390 kts | 215° |
| 2026-05-06 00:53 | 24.94693 | -80.93135 | 25017 ft | 395 kts | 215° |
| 2026-05-06 00:53 | 24.92432 | -80.94884 | 25017 ft | 399 kts | 215° |
| 2026-05-06 00:54 | 24.90150 | -80.96647 | 25015 ft | 402 kts | 215° |
| 2026-05-06 00:54 | 24.87858 | -80.98420 | 25015 ft | 404 kts | 215° |
| 2026-05-06 00:54 | 24.85547 | -81.00204 | 25015 ft | 406 kts | 215° |
| 2026-05-06 00:54 | 24.83238 | -81.01987 | 25015 ft | 405 kts | 215° |
| 2026-05-06 00:55 | 24.80931 | -81.03766 | 25015 ft | 404 kts | 215° |
| 2026-05-06 00:55 | 24.78633 | -81.05538 | 25014 ft | 403 kts | 215° |
| 2026-05-06 00:55 | 24.76332 | -81.07313 | 25013 ft | 402 kts | 215° |
| 2026-05-06 00:55 | 24.74044 | -81.09075 | 25012 ft | 402 kts | 215° |
| 2026-05-06 00:56 | 24.71753 | -81.10840 | 25009 ft | 401 kts | 215° |
| 2026-05-06 00:56 | 24.69461 | -81.12604 | 25011 ft | 402 kts | 215° |
| 2026-05-06 00:56 | 24.67171 | -81.14366 | 25004 ft | 403 kts | 215° |
| 2026-05-06 00:56 | 24.64873 | -81.16132 | 25003 ft | 403 kts | 215° |
| 2026-05-06 00:57 | 24.62572 | -81.17903 | 25013 ft | 404 kts | 215° |
| 2026-05-06 00:57 | 24.60266 | -81.19674 | 25005 ft | 404 kts | 215° |
| 2026-05-06 00:57 | 24.57961 | -81.21445 | 25011 ft | 405 kts | 215° |
| 2026-05-06 00:57 | 24.55653 | -81.23216 | 25015 ft | 405 kts | 215° |
| 2026-05-06 00:58 | 24.53343 | -81.24990 | 25014 ft | 405 kts | 215° |
| 2026-05-06 00:58 | 24.51029 | -81.26763 | 25015 ft | 405 kts | 215° |
| 2026-05-06 00:58 | 24.48722 | -81.28532 | 25015 ft | 405 kts | 215° |
| 2026-05-06 00:58 | 24.46440 | -81.30281 | 25015 ft | 405 kts | 215° |
| 2026-05-06 00:59 | 24.44125 | -81.32055 | 25017 ft | 405 kts | 215° |
| 2026-05-06 00:59 | 24.41813 | -81.33825 | 25015 ft | 405 kts | 215° |
| 2026-05-06 00:59 | 24.39493 | -81.35600 | 25015 ft | 405 kts | 215° |
| 2026-05-06 00:59 | 24.37180 | -81.37369 | 25015 ft | 406 kts | 215° |
| 2026-05-06 01:00 | 24.34886 | -81.39122 | 25013 ft | 394 kts | 215° |
| 2026-05-06 01:00 | 24.32716 | -81.40781 | 24995 ft | 367 kts | 215° |
| 2026-05-06 01:00 | 24.30699 | -81.42321 | 24994 ft | 341 kts | 215° |
| 2026-05-06 01:00 | 24.28739 | -81.43818 | 24998 ft | 349 kts | 215° |
| 2026-05-06 01:01 | 24.26709 | -81.45369 | 25006 ft | 361 kts | 215° |
| 2026-05-06 01:01 | 24.24615 | -81.46966 | 25019 ft | 371 kts | 215° |
| 2026-05-06 01:01 | 24.23200 | -81.48045 | 25018 ft | 377 kts | 215° |
| 2026-05-06 01:01 | 24.21025 | -81.49704 | 25016 ft | 385 kts | 215° |
| 2026-05-06 01:02 | 24.18805 | -81.51395 | 25016 ft | 391 kts | 215° |
| 2026-05-06 01:02 | 24.16560 | -81.53107 | 25015 ft | 396 kts | 215° |
| 2026-05-06 01:02 | 24.14288 | -81.54836 | 25016 ft | 399 kts | 215° |
| 2026-05-06 01:02 | 24.11996 | -81.56582 | 25016 ft | 402 kts | 215° |
| 2026-05-06 01:03 | 24.09691 | -81.58333 | 25016 ft | 404 kts | 215° |
| 2026-05-06 01:03 | 24.07375 | -81.60096 | 25015 ft | 406 kts | 215° |
| 2026-05-06 01:03 | 24.05057 | -81.61857 | 25016 ft | 405 kts | 215° |
| 2026-05-06 01:03 | 24.02747 | -81.63612 | 25016 ft | 404 kts | 215° |
| 2026-05-06 01:04 | 24.00439 | -81.65365 | 25014 ft | 403 kts | 215° |
| 2026-05-06 01:04 | 23.98138 | -81.67112 | 25010 ft | 402 kts | 215° |
| 2026-05-06 01:04 | 23.95841 | -81.68855 | 25008 ft | 402 kts | 215° |
| 2026-05-06 01:04 | 23.93543 | -81.70597 | 25012 ft | 401 kts | 215° |
| 2026-05-06 01:05 | 23.91248 | -81.72338 | 25012 ft | 402 kts | 215° |
| 2026-05-06 01:05 | 23.88946 | -81.74082 | 25012 ft | 403 kts | 215° |
| 2026-05-06 01:05 | 23.86644 | -81.75826 | 25013 ft | 403 kts | 215° |
| 2026-05-06 01:05 | 23.84335 | -81.77573 | 25014 ft | 404 kts | 215° |
| 2026-05-06 01:06 | 23.82024 | -81.79323 | 25014 ft | 404 kts | 215° |
| 2026-05-06 01:06 | 23.79708 | -81.81074 | 25015 ft | 405 kts | 215° |
| 2026-05-06 01:06 | 23.77390 | -81.82828 | 25016 ft | 405 kts | 215° |
| 2026-05-06 01:06 | 23.75073 | -81.84577 | 25015 ft | 405 kts | 215° |
| 2026-05-06 01:07 | 23.72753 | -81.86331 | 25016 ft | 405 kts | 215° |
| 2026-05-06 01:07 | 23.70464 | -81.88059 | 25017 ft | 405 kts | 215° |
| 2026-05-06 01:07 | 23.68145 | -81.89810 | 25016 ft | 405 kts | 215° |
| 2026-05-06 01:07 | 23.65827 | -81.91558 | 25016 ft | 405 kts | 215° |
| 2026-05-06 01:08 | 23.63510 | -81.93306 | 25016 ft | 405 kts | 215° |
| 2026-05-06 01:08 | 23.61182 | -81.95060 | 25016 ft | 405 kts | 215° |
| 2026-05-06 01:08 | 23.58862 | -81.96808 | 25017 ft | 406 kts | 215° |
| 2026-05-06 01:08 | 23.56539 | -81.98557 | 25016 ft | 406 kts | 215° |
| 2026-05-06 01:09 | 23.54217 | -82.00306 | 25017 ft | 406 kts | 215° |
| 2026-05-06 01:09 | 23.51896 | -82.02052 | 25016 ft | 406 kts | 215° |
| 2026-05-06 01:09 | 23.49568 | -82.03803 | 25016 ft | 406 kts | 215° |
| 2026-05-06 01:09 | 23.47246 | -82.05549 | 25016 ft | 406 kts | 215° |
| 2026-05-06 01:10 | 23.44924 | -82.07294 | 25017 ft | 406 kts | 215° |
| 2026-05-06 01:10 | 23.42598 | -82.09042 | 25017 ft | 406 kts | 215° |
| 2026-05-06 01:10 | 23.40278 | -82.10782 | 25016 ft | 406 kts | 215° |
| 2026-05-06 01:10 | 23.37954 | -82.12528 | 25017 ft | 406 kts | 215° |
| 2026-05-06 01:11 | 23.35630 | -82.14270 | 25016 ft | 406 kts | 215° |
| 2026-05-06 01:11 | 23.33307 | -82.16014 | 25016 ft | 406 kts | 215° |
| 2026-05-06 01:11 | 23.30980 | -82.17756 | 25017 ft | 406 kts | 214° |
| 2026-05-06 01:11 | 23.28654 | -82.19499 | 25017 ft | 406 kts | 215° |
| 2026-05-06 01:12 | 23.26327 | -82.21241 | 25016 ft | 406 kts | 214° |
| 2026-05-06 01:12 | 23.24005 | -82.22980 | 25016 ft | 406 kts | 215° |
| 2026-05-06 01:12 | 23.21682 | -82.24718 | 25016 ft | 406 kts | 214° |
| 2026-05-06 01:12 | 23.19355 | -82.26459 | 25017 ft | 406 kts | 215° |
| 2026-05-06 01:13 | 23.17027 | -82.28199 | 25016 ft | 406 kts | 214° |
| 2026-05-06 01:13 | 23.14702 | -82.29936 | 25017 ft | 406 kts | 214° |
| 2026-05-06 01:13 | 23.12377 | -82.31674 | 25015 ft | 404 kts | 214° |
| 2026-05-06 01:13 | 23.10097 | -82.33375 | 24879 ft | 389 kts | 214° |
| 2026-05-06 01:14 | 23.05677 | -82.36673 | 21285 ft | 381 kts | 214° |
| 2026-05-06 01:14 | 23.03555 | -82.38258 | 19740 ft | 369 kts | 215° |
| 2026-05-06 01:14 | 23.01793 | -82.40215 | 18043 ft | 362 kts | 239° |
| 2026-05-06 01:15 | 23.00802 | -82.42678 | 16506 ft | 351 kts | 251° |
| 2026-05-06 01:15 | 23.00107 | -82.45187 | 14968 ft | 339 kts | 255° |
| 2026-05-06 01:15 | 22.99521 | -82.47576 | 12536 ft | 324 kts | 256° |
| 2026-05-06 01:15 | 22.98980 | -82.49922 | 10229 ft | 315 kts | 256° |
| 2026-05-06 01:16 | 22.98470 | -82.52177 | 8003 ft | 303 kts | 256° |
| 2026-05-06 01:16 | 22.97980 | -82.54365 | 6830 ft | 278 kts | 256° |
| 2026-05-06 01:16 | 22.97354 | -82.56279 | 6943 ft | 275 kts | 236° |
| 2026-05-06 01:16 | 22.95806 | -82.57665 | 7026 ft | 301 kts | 205° |
| 2026-05-06 01:17 | 22.93784 | -82.58244 | 7023 ft | 298 kts | 190° |
| 2026-05-06 01:17 | 22.91786 | -82.58315 | 6994 ft | 281 kts | 168° |
| 2026-05-06 01:17 | 22.90175 | -82.57312 | 6995 ft | 261 kts | 132° |
| 2026-05-06 01:17 | 22.89484 | -82.55625 | 6996 ft | 237 kts | 94° |
| 2026-05-06 01:18 | 22.89864 | -82.53967 | 6891 ft | 224 kts | 62° |
| 2026-05-06 01:18 | 22.90694 | -82.52517 | 6348 ft | 227 kts | 56° |
| 2026-05-06 01:18 | 22.91590 | -82.51154 | 5736 ft | 214 kts | 48° |
| 2026-05-06 01:18 | 22.92661 | -82.50230 | 5302 ft | 179 kts | 34° |
| 2026-05-06 01:19 | 22.93484 | -82.49361 | 4693 ft | 157 kts | 49° |
| 2026-05-06 01:19 | 22.94161 | -82.48459 | 3848 ft | 159 kts | 53° |
| 2026-05-06 01:19 | 22.94423 | -82.48028 | 3443 ft | 161 kts | 57° |
| 2026-05-06 01:20 | 22.94703 | -82.47525 | 2913 ft | 163 kts | 58° |
| 2026-05-06 01:21 | 22.95277 | -82.46444 | 1942 ft | 163 kts | 59° |
| 2026-05-06 01:21 | 22.95878 | -82.45433 | 1215 ft | 160 kts | 52° |
| 2026-05-06 01:21 | 22.96503 | -82.44536 | 833 ft | 136 kts | 53° |
| 2026-05-06 01:21 | 22.97036 | -82.43748 | 562 ft | 124 kts | 53° |
| 2026-05-06 01:22 | 22.97531 | -82.42991 | 327 ft | 126 kts | 53° |
| 2026-05-06 01:22 | 22.98032 | -82.42256 | 210 ft | 113 kts | 53° |
| 2026-05-06 01:22 | 22.98452 | -82.41607 | 199 ft | 90 kts | 54° |
| 2026-05-06 01:22 | 22.98723 | -82.41194 | 194 ft | 56 kts | 52° |
| 2026-05-06 01:23 | 22.98884 | -82.41086 | 194 ft | 17 kts | 8° |
| 2026-05-06 01:23 | 22.98940 | -82.41073 | 199 ft | 0 kts | 7° |
| 2026-05-06 01:23 | 22.98965 | -82.41068 | 194 ft | 6 kts | 14° |
| 2026-05-06 01:23 | 22.98999 | -82.41058 | 194 ft | 6 kts | 12° |
| 2026-05-06 01:24 | 22.99044 | -82.41032 | 195 ft | 8 kts | 51° |
| 2026-05-06 01:24 | 22.99087 | -82.40963 | 200 ft | 14 kts | 61° |
| 2026-05-06 01:24 | 22.99133 | -82.40879 | 198 ft | 11 kts | 39° |
| 2026-05-06 01:24 | 22.99185 | -82.40816 | 194 ft | 11 kts | 52° |
| 2026-05-06 01:25 | 22.99231 | -82.40753 | 200 ft | 11 kts | 51° |
| 2026-05-06 01:25 | 22.99276 | -82.40692 | 194 ft | 10 kts | 55° |
| 2026-05-06 01:25 | 22.99319 | -82.40629 | 194 ft | 10 kts | 52° |
| 2026-05-06 01:25 | 22.99364 | -82.40562 | 198 ft | 16 kts | 57° |
| 2026-05-06 01:26 | 22.99437 | -82.40448 | 197 ft | 21 kts | 57° |
| 2026-05-06 01:26 | 22.99555 | -82.40444 | 195 ft | 23 kts | 332° |
| 2026-05-06 01:26 | 22.99582 | -82.40459 | 195 ft | 23 kts | 334° |